Flight Track Log - Related Links

Times and Time Zones

All times are in EDT time to prevent confusion due to time zone crossing. See the SWA3028 flight status page for this flight to view local times or setup timezone preferences in your user account.


Time Position Orientation Groundspeed Altitude Reporting Facility
EDT Latitude Longitude Course Direction KTS MPH feet Rate Location/Type
Tue 08:37:17 AM 41.8333 -87.7833 360° North 269 310 3,100  Level Chicago TRACON
Tue 08:38:11 AM 41.8333 -87.7000 90° East 303 349 4,400 1,000 Climbing Chicago TRACON
Tue 08:39:11 AM 41.8167 -87.5833 101° East 302 348 5,000 468 Climbing Chicago TRACON
Tue 08:39:28 AM 41.8119 -87.5628 107° East 297 342 5,000 228 Level Chicago Center
Tue 08:40:30 AM 41.8017 -87.4544 97° East 297 342 5,300 1,790 Climbing Chicago Center
Tue 08:41:32 AM 41.7911 -87.3422 97° East 301 346 8,700 4,000 Climbing Chicago Center
Tue 08:42:33 AM 41.7767 -87.2047 98° East 309 356 13,500 4,146 Climbing Chicago Center
Tue 08:43:35 AM 41.7650 -87.0794 97° East 329 379 17,200 3,484 Climbing Chicago Center
Tue 08:44:37 AM 41.7631 -86.9453 91° East 356 410 20,700 3,290 Climbing Chicago Center
Tue 08:45:39 AM 41.7647 -86.8053 89° East 376 433 24,000 3,387 Climbing Chicago Center
Tue 08:46:41 AM 41.7603 -86.6669 92° East 368 423 27,700 2,323 Climbing Chicago Center
Tue 08:47:43 AM 41.7583 -86.5244 91° East 381 438 28,800 1,306 Climbing Chicago Center
Tue 08:48:45 AM 41.7539 -86.3647 92° East 425 489 30,400 1,805 Climbing Chicago Center
Tue 08:49:46 AM 41.7500 -86.1656 91° East 445 512 32,500 2,098 Climbing Chicago Center
Tue 08:50:48 AM 41.7450 -85.9972 92° East 452 520 34,700 1,887 Climbing Chicago Center
Tue 08:51:50 AM 41.7406 -85.8294 92° East 450 518 36,400 1,548 Climbing Chicago Center
Tue 08:52:52 AM 41.7364 -85.6594 92° East 455 524 37,900 1,610 Climbing Chicago Center
Tue 08:53:53 AM 41.7317 -85.4989 92° East 455 524 39,700 1,366 Climbing Chicago Center
Tue 08:54:55 AM 41.7228 -85.3108 94° East 437 503 40,700 629 Climbing Chicago Center
Tue 08:55:57 AM 41.7203 -85.1483 91° East 455 524 41,000 164 Climbing Chicago Center
Tue 08:56:45 AM 41.7181 -85.0125 91° East 438 504 41,000  Level Cleveland Center
Tue 08:57:46 AM 41.7119 -84.8422 93° East 444 511 41,000  Level Cleveland Center
Tue 08:58:46 AM 41.7056 -84.6750 93° East 444 511 41,000  Level Cleveland Center
Tue 08:59:45 AM 41.6967 -84.5075 94° East 449 517 41,000  Level Cleveland Center
Tue 09:00:46 AM 41.6922 -84.3347 92° East 449 517 41,000  Level Cleveland Center
Tue 09:01:46 AM 41.6792 -84.1558 96° East 444 511 41,000  Level Cleveland Center
Tue 09:02:45 AM 41.6739 -83.9889 92° East 444 511 41,000  Level Cleveland Center
Tue 09:03:46 AM 41.6664 -83.8133 93° East 449 517 41,000  Level Cleveland Center
Tue 09:04:46 AM 41.6586 -83.6433 93° East 449 517 41,000  Level Cleveland Center
Tue 09:05:45 AM 41.6503 -83.4761 94° East 454 522 41,000  Level Cleveland Center
Tue 09:06:46 AM 41.6358 -83.3058 96° East 454 522 41,000  Level Cleveland Center
Tue 09:07:45 AM 41.6014 -83.1656 108° East 454 522 41,000  Level Cleveland Center
Tue 09:08:46 AM 41.5633 -83.0031 107° East 447 514 41,000  Level Cleveland Center
Tue 09:09:46 AM 41.5228 -82.8464 109° East 447 514 41,000  Level Cleveland Center
Tue 09:10:46 AM 41.4803 -82.6731 108° East 455 524 41,000  Level Cleveland Center
Tue 09:11:46 AM 41.4372 -82.5081 109° East 455 524 41,000  Level Cleveland Center
Tue 09:12:45 AM 41.3961 -82.3492 109° East 455 524 41,000  Level Cleveland Center
Tue 09:13:45 AM 41.3547 -82.1875 109° East 455 524 41,000  Level Cleveland Center
Tue 09:14:46 AM 41.3211 -82.0375 107° East 455 524 41,000  Level Cleveland Center
Tue 09:15:45 AM 41.2792 -81.8789 109° East 455 524 41,000  Level Cleveland Center
Tue 09:16:46 AM 41.2372 -81.7236 110° East 450 518 41,000  Level Cleveland Center
Tue 09:17:45 AM 41.1969 -81.5628 108° East 450 518 41,000  Level Cleveland Center
Tue 09:18:45 AM 41.1461 -81.3911 111° Southeast 450 518 41,000  Level Cleveland Center
Tue 09:19:45 AM 41.1033 -81.2333 110° East 456 525 41,000  Level Cleveland Center
Tue 09:20:46 AM 41.0606 -81.0761 110° East 448 516 41,000  Level Cleveland Center
Tue 09:21:45 AM 41.0275 -80.9353 107° East 448 516 41,000  Level Cleveland Center
Tue 09:22:45 AM 40.9842 -80.7783 110° East 448 516 41,000  Level Cleveland Center
Tue 09:23:45 AM 40.9406 -80.6217 110° East 448 516 41,000  Level Cleveland Center
Tue 09:24:46 AM 40.8967 -80.4678 111° Southeast 448 516 41,000  Level Cleveland Center
Tue 09:25:46 AM 40.8547 -80.3197 110° East 448 516 41,000  Level Cleveland Center
Tue 09:26:45 AM 40.8086 -80.1717 112° Southeast 438 504 41,000  Level Cleveland Center
Tue 09:27:45 AM 40.7558 -80.0267 116° Southeast 438 504 41,000  Level Cleveland Center
Tue 09:28:45 AM 40.7050 -79.8764 114° Southeast 443 510 41,000  Level Cleveland Center
Tue 09:29:45 AM 40.6519 -79.7319 116° Southeast 438 504 41,000  Level Cleveland Center
Tue 09:30:45 AM 40.5986 -79.5850 116° Southeast 438 504 41,000 -750 Level Cleveland Center
Tue 09:31:45 AM 40.5597 -79.4325 109° East 438 504 39,500 -1,200 Descending Cleveland Center
Tue 09:32:45 AM 40.5306 -79.2583 102° East 433 498 38,600 -900 Descending Cleveland Center
Tue 09:33:45 AM 40.5014 -79.0950 103° East 440 506 37,700 -900 Descending Cleveland Center
Tue 09:34:45 AM 40.4742 -78.9292 102° East 459 528 36,800 -950 Descending Cleveland Center
Tue 09:35:45 AM 40.4467 -78.7578 102° East 464 534 35,800 -950 Descending Cleveland Center
Tue 09:36:45 AM 40.4189 -78.5922 102° East 470 541 34,900 -1,537 Descending Cleveland Center
Tue 09:37:46 AM 40.3886 -78.4214 103° East 470 541 32,700 -2,524 Descending Cleveland Center
Tue 09:39:29 AM 40.3453 -78.1572 102° East 474 545 28,000 -2,671 Descending New York Center
Tue 09:40:30 AM 40.3158 -77.9933 103° East 463 533 25,400 -1,488 Descending New York Center
Tue 09:41:30 AM 40.3089 -77.8292 93° East 452 520 25,000 -205 Descending New York Center
Tue 09:42:27 AM 40.2956 -77.6319 95° East 470 541 25,000  Level New York Center
Tue 09:43:28 AM 40.2722 -77.4581 100° East 481 554 25,000 -298 Level New York Center
Tue 09:44:28 AM 40.2569 -77.3206 98° East 486 559 24,400 -1,488 Descending New York Center
Tue 09:45:29 AM 40.2292 -77.1411 101° East 469 540 22,000 -2,803 Descending New York Center
Tue 09:46:30 AM 40.2125 -76.9847 98° East 450 518 18,700 -2,200 Descending New York Center
Tue 09:47:29 AM 40.1972 -76.8392 98° East 412 474 17,600 -1,100 Descending New York Center
Tue 09:48:30 AM 40.1803 -76.6800 98° East 400 460 16,500 -992 Descending New York Center
Tue 09:49:30 AM 40.1664 -76.5403 97° East 390 449 15,600 -974 Descending New York Center
Tue 09:50:27 AM 40.1522 -76.4008 98° East 390 449 14,600 -966 Descending New York Center
Tue 09:51:28 AM 40.1392 -76.2775 98° East 390 449 13,700 -934 Descending New York Center
Tue 09:52:29 AM 40.1264 -76.1461 97° East 377 434 12,700 -1,450 Descending New York Center
Tue 09:53:28 AM 40.1119 -76.0064 98° East 358 412 10,800 -1,361 Descending New York Center
Tue 09:54:28 AM 40.0981 -75.8942 99° East 334 384 10,000 -992 Descending New York Center
Tue 09:55:29 AM 40.0856 -75.7956 99° East 289 333 8,800 -1,339 Descending New York Center
Tue 09:56:29 AM 40.0642 -75.7128 109° East 265 305 7,300 -1,388 Descending New York Center
Tue 09:57:30 AM 39.9900 -75.6911 167° South 225 259 6,000 -650 Descending New York Center
Tue 09:58:29 AM 39.9344 -75.6764 169° South 232 267 6,000 -403 Level New York Center
Tue 09:59:29 AM 39.8744 -75.6667 173° South 216 249 5,200 -750 Descending New York Center
Tue 10:00:29 AM 39.8425 -75.6267 136° Southeast 182 209 4,500 -744 Descending New York Center
Tue 10:01:30 AM 39.8200 -75.5656 116° Southeast 175 201 3,700 -857 Descending New York Center
Tue 10:02:28 AM 39.8178 -75.5169 93° East 154 177 2,800 -889 Descending New York Center
Tue 10:03:18 AM 39.8167 -75.4667 92° East 159 183 2,100 -436 Descending Philadelphia TRACON
Tue 10:04:18 AM 39.8333 -75.4000 72° East 156 180 2,000 -381 Descending Philadelphia TRACON
Tue 10:05:24 AM 39.8500 -75.3500 67° East 121 139 1,300 -632 Descending Philadelphia TRACON
Tue 10:06:12 AM 39.8500 -75.3167 90° East 114 131 800 -625 Descending Philadelphia TRACON
Tue 10:08:00 AM 39.8722 -75.2409 75° East  Level Estimated

Login

Don't have an account? Register now (free) for customized features, flight alerts, and more!